createdAt,value
2018-02-22T00:01:51.321Z,30.17
2018-02-22T00:04:18.859Z,26.77
2018-02-22T00:06:46.429Z,28.38
2018-02-22T00:09:13.977Z,29.45
2018-02-22T00:11:42.316Z,30.23
2018-02-22T00:14:09.858Z,29.35
2018-02-22T00:16:37.423Z,30.40
2018-02-22T00:19:04.971Z,30.25
2018-02-22T00:21:32.539Z,29.80
2018-02-22T00:24:00.082Z,32.33
2018-02-22T00:26:27.646Z,30.92
2018-02-22T00:28:55.186Z,30.35
2018-02-22T00:31:22.752Z,29.65
2018-02-22T00:33:50.298Z,27.83
2018-02-22T00:36:17.874Z,30.95
2018-02-22T00:38:45.434Z,33.50
2018-02-22T00:41:13.019Z,29.75
2018-02-22T00:43:40.554Z,30.50
2018-02-22T00:46:08.118Z,30.85
2018-02-22T00:48:35.661Z,33.00
2018-02-22T00:51:03.227Z,28.65
2018-02-22T00:53:30.782Z,30.35
2018-02-22T00:55:59.107Z,34.30
2018-02-22T00:58:26.678Z,31.62
2018-02-22T01:00:54.230Z,31.95
2018-02-22T01:03:21.826Z,36.42
2018-02-22T01:05:50.130Z,32.95
2018-02-22T01:08:17.699Z,34.55
2018-02-22T01:10:45.248Z,34.20
2018-02-22T01:13:12.814Z,34.57
2018-02-22T01:15:40.354Z,32.47
2018-02-22T01:18:07.918Z,30.30
2018-02-22T01:20:35.463Z,35.10
2018-02-22T01:23:03.810Z,29.55
2018-02-22T01:25:31.349Z,34.43
2018-02-22T01:27:58.915Z,33.70
2018-02-22T01:30:26.467Z,31.80
2018-02-22T01:32:54.853Z,33.78
2018-02-22T01:35:22.395Z,30.42
2018-02-22T01:37:49.978Z,27.02
2018-02-22T01:40:17.522Z,30.77
2018-02-22T01:42:45.066Z,32.58
2018-02-22T01:45:12.630Z,34.15
2018-02-22T01:47:40.173Z,31.35
2018-02-22T01:50:07.740Z,32.88
2018-02-22T01:52:35.442Z,30.88
2018-02-22T01:55:03.006Z,31.52
2018-02-22T01:57:30.542Z,32.17
2018-02-22T01:59:58.106Z,31.95
2018-02-22T02:02:25.643Z,31.10
2018-02-22T02:04:53.210Z,30.83
2018-02-22T02:07:20.760Z,30.65
2018-02-22T02:09:48.331Z,28.40
2018-02-22T02:12:15.878Z,30.67
2018-02-22T02:14:43.441Z,30.27
2018-02-22T02:17:10.978Z,31.10
2018-02-22T02:19:39.286Z,29.27
2018-02-22T02:22:06.847Z,29.05
2018-02-22T02:24:34.391Z,28.98
2018-02-22T02:27:01.954Z,30.40
2018-02-22T02:29:29.490Z,31.65
2018-02-22T02:31:57.815Z,31.45
2018-02-22T02:34:25.351Z,30.00
2018-02-22T02:36:52.919Z,29.02
2018-02-22T02:39:20.462Z,27.60
2018-02-22T02:41:48.030Z,27.77
2018-02-22T02:44:15.575Z,29.85
2018-02-22T02:46:43.907Z,29.45
2018-02-22T02:49:11.449Z,29.85
2018-02-22T02:51:39.011Z,29.25
2018-02-22T02:54:06.550Z,29.33
2018-02-22T02:56:34.114Z,25.30
2018-02-22T02:59:01.658Z,27.62
2018-02-22T03:01:29.238Z,28.27
2018-02-22T03:03:56.776Z,28.38
2018-02-22T03:06:25.078Z,26.90
2018-02-22T03:08:52.648Z,27.37
2018-02-22T03:11:20.187Z,27.20
2018-02-22T03:13:47.757Z,29.15
2018-02-22T03:16:15.302Z,25.20
2018-02-22T03:18:42.871Z,27.50
2018-02-22T03:21:10.409Z,28.55
2018-02-22T03:23:37.978Z,24.87
2018-02-22T03:26:05.525Z,26.85
2018-02-22T03:28:33.862Z,26.12
2018-02-22T03:31:01.399Z,25.42
2018-02-22T03:33:28.971Z,25.98
2018-02-22T03:35:56.521Z,26.60
2018-02-22T03:38:24.082Z,25.17
2018-02-22T03:40:51.623Z,23.15
2018-02-22T03:43:19.191Z,21.95
2018-02-22T03:45:46.725Z,22.83
2018-02-22T03:48:14.297Z,24.75
2018-02-22T03:50:41.831Z,23.65
2018-02-22T03:53:10.150Z,24.60
2018-02-22T03:55:37.698Z,23.67
2018-02-22T03:58:05.262Z,22.87
2018-02-22T04:00:32.806Z,24.90
2018-02-22T04:03:00.380Z,21.70
2018-02-22T04:05:27.914Z,24.20
2018-02-22T04:07:56.247Z,22.20
2018-02-22T04:10:23.791Z,22.70
2018-02-22T04:12:51.335Z,20.52
2018-02-22T04:15:18.898Z,22.85
2018-02-22T04:17:46.434Z,22.02
2018-02-22T04:20:14.770Z,21.33
2018-02-22T04:22:42.310Z,22.37
2018-02-22T04:25:09.882Z,20.30
2018-02-22T04:27:37.418Z,20.35
2018-02-22T04:30:04.991Z,21.25
2018-02-22T04:32:32.587Z,23.45
2018-02-22T04:35:00.119Z,21.05
2018-02-22T04:37:27.655Z,21.40
2018-02-22T04:39:55.219Z,21.42
2018-02-22T04:42:22.771Z,20.55
2018-02-22T04:44:50.334Z,21.12
2018-02-22T04:47:17.878Z,20.02
2018-02-22T04:49:45.448Z,20.65
2018-02-22T04:52:12.990Z,19.35
2018-02-22T04:54:41.322Z,19.87
2018-02-22T04:57:08.867Z,19.42
2018-02-22T04:59:36.442Z,21.50
2018-02-22T05:02:03.990Z,21.33
2018-02-22T05:04:31.531Z,20.00
2018-02-22T05:06:59.090Z,19.02
2018-02-22T05:09:26.631Z,20.55
2018-02-22T05:11:54.960Z,19.67
2018-02-22T05:14:22.499Z,19.10
2018-02-22T05:16:50.064Z,18.62
2018-02-22T05:19:17.613Z,17.92
2018-02-22T05:21:45.177Z,18.92
2018-02-22T05:24:12.714Z,19.85
2018-02-22T05:26:40.287Z,19.08
2018-02-22T05:29:07.831Z,18.92
2018-02-22T05:31:35.394Z,18.25
2018-02-22T05:34:03.002Z,19.62
2018-02-22T05:36:30.562Z,17.55
2018-02-22T05:38:58.107Z,19.52
2018-02-22T05:41:25.672Z,19.65
2018-02-22T05:43:53.986Z,16.80
2018-02-22T05:46:22.322Z,17.52
2018-02-22T05:48:49.853Z,19.15
2018-02-22T05:51:17.414Z,18.25
2018-02-22T05:53:44.951Z,19.17
2018-02-22T05:56:13.250Z,18.62
2018-02-22T05:58:40.814Z,16.73
2018-02-22T06:01:08.349Z,17.00
2018-02-22T06:03:36.678Z,17.33
2018-02-22T06:06:04.218Z,19.95
2018-02-22T06:08:31.793Z,18.33
2018-02-22T06:10:59.326Z,16.50
2018-02-22T06:13:26.891Z,16.23
2018-02-22T06:15:54.430Z,18.25
2018-02-22T06:18:22.760Z,20.65
2018-02-22T06:20:50.298Z,16.40
2018-02-22T06:23:17.858Z,18.62
2018-02-22T06:25:45.402Z,18.83
2018-02-22T06:28:12.978Z,17.20
2018-02-22T06:30:40.515Z,16.60
2018-02-22T06:54:37.571Z,14.63
2018-02-22T06:57:05.110Z,18.30
2018-02-22T06:59:32.666Z,15.00
2018-02-22T07:02:00.207Z,16.55
2018-02-22T07:04:27.782Z,17.10
2018-02-22T07:06:55.314Z,14.18
2018-02-22T07:09:22.883Z,15.90
2018-02-22T07:11:50.509Z,15.77
2018-02-22T07:14:18.855Z,14.30
2018-02-22T07:16:46.402Z,15.50
2018-02-22T07:19:13.977Z,15.55
2018-02-22T07:21:41.520Z,14.80
2018-02-22T07:24:09.081Z,16.62
2018-02-22T07:26:36.616Z,13.90
2018-02-22T07:29:04.191Z,14.57
2018-02-22T07:31:31.735Z,14.57
2018-02-22T07:33:59.302Z,14.35
2018-02-22T07:36:26.855Z,13.65
2018-02-22T07:38:54.422Z,13.20
2018-02-22T07:41:21.960Z,13.60
2018-02-22T07:43:50.299Z,13.73
2018-02-22T07:46:17.838Z,14.30
2018-02-22T07:48:45.395Z,15.27
2018-02-22T07:51:12.933Z,14.20
2018-02-22T07:53:40.486Z,13.00
2018-02-22T07:56:08.025Z,14.73
2018-02-22T07:58:36.353Z,13.02
2018-02-22T08:01:03.892Z,12.70
2018-02-22T08:03:31.454Z,13.02
2018-02-22T08:05:58.994Z,12.50
2018-02-22T08:08:27.323Z,11.10
2018-02-22T08:10:54.860Z,13.48
2018-02-22T08:13:22.423Z,13.82
2018-02-22T08:15:49.962Z,11.60
2018-02-22T08:18:17.498Z,14.80
2018-02-22T08:20:45.831Z,13.55
2018-02-22T08:23:13.370Z,12.00
2018-02-22T08:25:40.935Z,12.07
2018-02-22T08:28:08.476Z,11.25
2018-02-22T08:30:36.047Z,12.52
2018-02-22T08:33:03.595Z,11.38
2018-02-22T08:35:31.163Z,12.52
2018-02-22T08:37:58.702Z,11.73
2018-02-22T08:40:27.029Z,11.05
2018-02-22T08:42:54.566Z,11.23
2018-02-22T08:45:22.134Z,10.98
2018-02-22T08:47:49.678Z,10.80
2018-02-22T08:50:17.237Z,11.38
2018-02-22T08:52:44.778Z,11.87
2018-02-22T08:55:13.115Z,10.88
2018-02-22T08:57:40.651Z,9.98
2018-02-22T09:00:08.212Z,8.43
2018-02-22T09:02:35.797Z,10.60
2018-02-22T09:05:03.331Z,9.73
2018-02-22T09:07:30.880Z,10.35
2018-02-22T09:09:58.447Z,9.05
2018-02-22T09:12:25.994Z,10.20
2018-02-22T09:14:53.569Z,10.15
2018-02-22T09:17:21.115Z,8.93
2018-02-22T09:19:48.670Z,11.27
2018-02-22T09:22:16.210Z,9.73
2018-02-22T09:24:44.547Z,9.30
2018-02-22T09:27:12.088Z,8.75
2018-02-22T09:29:39.653Z,10.23
2018-02-22T09:32:07.190Z,9.50
2018-02-22T09:34:34.755Z,8.47
2018-02-22T09:37:02.295Z,9.33
2018-02-22T09:39:29.862Z,9.60
2018-02-22T09:41:57.415Z,8.73
2018-02-22T09:44:25.734Z,9.13
2018-02-22T09:46:53.269Z,9.30
2018-02-22T09:49:20.830Z,9.30
2018-02-22T09:51:48.363Z,8.57
2018-02-22T09:54:16.692Z,7.47
2018-02-22T09:56:44.228Z,9.05
2018-02-22T09:59:11.792Z,8.70
2018-02-22T10:01:39.334Z,8.77
2018-02-22T10:04:07.660Z,9.13
2018-02-22T10:06:35.189Z,8.17
2018-02-22T10:09:02.738Z,8.07
2018-02-22T10:11:30.276Z,8.27
2018-02-22T10:13:58.611Z,7.20
2018-02-22T10:16:26.905Z,8.13
2018-02-22T10:18:54.464Z,9.40
2018-02-22T10:21:22.001Z,8.33
2018-02-22T10:23:49.533Z,7.90
2018-02-22T10:26:17.090Z,9.07
2018-02-22T10:28:44.625Z,9.15
2018-02-22T10:31:12.942Z,8.53
2018-02-22T10:33:40.476Z,7.43
2018-02-22T10:36:08.802Z,8.50
2018-02-22T10:38:36.322Z,7.27
2018-02-22T10:41:03.883Z,8.75
2018-02-22T10:43:31.414Z,8.40
2018-02-22T10:45:59.734Z,8.15
2018-02-22T10:48:27.274Z,7.55
2018-02-22T10:50:55.586Z,8.93
2018-02-22T10:53:23.110Z,7.27
2018-02-22T10:55:51.424Z,8.30
2018-02-22T10:58:18.951Z,7.80
2018-02-22T11:00:52.131Z,8.00
2018-02-22T11:03:20.419Z,8.20
2018-02-22T11:05:47.971Z,7.07
2018-02-22T11:08:16.267Z,7.33
2018-02-22T11:10:43.820Z,6.97
2018-02-22T11:13:11.351Z,8.13
2018-02-22T11:15:38.903Z,7.83
2018-02-22T11:18:06.435Z,7.77
2018-02-22T11:20:33.986Z,7.23
2018-02-22T11:23:01.527Z,6.50
2018-02-22T11:25:29.075Z,6.23
2018-02-22T11:27:56.656Z,6.60
2018-02-22T11:30:24.941Z,6.70
2018-02-22T11:32:52.497Z,7.10
2018-02-22T11:35:20.048Z,6.70
2018-02-22T11:37:47.581Z,6.47
2018-02-22T11:40:15.899Z,7.23
2018-02-22T11:42:43.425Z,6.20
2018-02-22T11:45:10.979Z,6.40
2018-02-22T11:47:39.278Z,5.67
2018-02-22T11:50:06.830Z,5.80
2018-02-22T11:52:34.366Z,6.30
2018-02-22T11:55:02.685Z,6.40
2018-02-22T11:57:30.221Z,5.97
2018-02-22T11:59:57.770Z,6.23
2018-02-22T12:02:26.066Z,6.40
2018-02-22T12:04:53.618Z,6.17
2018-02-22T12:07:21.154Z,6.40
2018-02-22T12:09:49.466Z,5.80
2018-02-22T12:12:16.986Z,6.23
2018-02-22T12:14:44.543Z,6.80
2018-02-22T12:17:12.062Z,5.33
2018-02-22T12:19:39.636Z,5.83
2018-02-22T12:22:07.166Z,6.67
2018-02-22T12:24:34.718Z,6.40
2018-02-22T12:27:02.242Z,6.30
2018-02-22T12:29:29.791Z,6.50
2018-02-22T12:31:57.323Z,7.07
2018-02-22T12:34:24.873Z,7.37
2018-02-22T12:36:52.402Z,7.30
2018-02-22T12:39:20.704Z,6.60
2018-02-22T12:41:48.265Z,5.93
2018-02-22T12:44:15.795Z,6.63
2018-02-22T12:46:44.111Z,6.40
2018-02-22T12:49:11.639Z,6.73
2018-02-22T12:51:39.195Z,6.60
2018-02-22T12:54:07.486Z,6.87
2018-02-22T12:56:35.034Z,6.80
2018-02-22T12:59:02.563Z,5.43
2018-02-22T13:01:30.117Z,7.10
2018-02-22T13:03:57.654Z,6.60
2018-02-22T13:06:25.204Z,6.30
2018-02-22T13:08:52.732Z,5.90
2018-02-22T13:11:21.039Z,7.23
2018-02-22T13:13:48.566Z,6.97
2018-02-22T13:16:16.874Z,6.50
2018-02-22T13:18:44.417Z,6.50
2018-02-22T13:21:11.971Z,5.90
2018-02-22T13:23:39.499Z,6.10
2018-02-22T13:26:07.828Z,6.30
2018-02-22T13:28:35.353Z,6.20
2018-02-22T13:31:03.675Z,6.77
2018-02-22T13:33:42.930Z,5.95
2018-02-22T13:36:10.486Z,6.57
2018-02-22T13:38:49.862Z,7.10
2018-02-22T13:41:18.185Z,5.77
2018-02-22T13:43:45.706Z,7.17
2018-02-22T13:46:14.023Z,7.10
2018-02-22T13:48:53.611Z,7.17
2018-02-22T13:51:21.941Z,8.60
2018-02-22T13:53:49.471Z,8.20
2018-02-22T13:56:29.014Z,7.73
2018-02-22T13:58:56.540Z,7.83
2018-02-22T14:01:35.999Z,6.20
2018-02-22T14:04:03.534Z,9.93
2018-02-22T14:06:31.116Z,8.33
2018-02-22T14:08:59.404Z,8.57
2018-02-22T14:11:26.964Z,8.23
2018-02-22T14:13:54.498Z,8.03
2018-02-22T14:16:22.053Z,8.20
2018-02-22T14:18:49.577Z,8.43
2018-02-22T14:21:17.138Z,9.73
2018-02-22T14:23:44.661Z,7.90
2018-02-22T14:26:12.206Z,9.47
2018-02-22T14:28:40.543Z,8.40
2018-02-22T14:31:08.098Z,9.23
2018-02-22T14:33:35.635Z,8.67
2018-02-22T14:36:03.191Z,8.87
2018-02-22T14:38:30.722Z,9.77
2018-02-22T14:40:59.042Z,8.37
2018-02-22T14:43:26.596Z,8.40
2018-02-22T14:45:54.144Z,8.37
2018-02-22T14:48:21.680Z,11.27
2018-02-22T14:50:50.000Z,8.30
2018-02-22T14:53:17.529Z,8.90
2018-02-22T14:55:45.074Z,8.20
2018-02-22T14:58:13.385Z,8.50
2018-02-22T15:00:40.939Z,8.83
2018-02-22T15:03:08.463Z,9.50
2018-02-22T15:05:36.791Z,8.80
2018-02-22T15:08:04.327Z,8.73
2018-02-22T15:10:31.887Z,8.00
2018-02-22T15:12:59.414Z,8.20
2018-02-22T15:15:26.975Z,8.00
2018-02-22T15:17:55.284Z,8.23
2018-02-22T15:20:22.814Z,7.87
2018-02-22T15:22:50.371Z,8.63
2018-02-22T15:25:17.893Z,7.73
2018-02-22T15:27:45.446Z,7.77
2018-02-22T15:30:12.975Z,7.80
2018-02-22T15:32:41.294Z,8.20
2018-02-22T15:35:08.822Z,9.10
2018-02-22T15:37:36.370Z,7.50
2018-02-22T15:40:03.907Z,8.30
2018-02-22T15:42:32.320Z,8.50
2018-02-22T15:44:59.855Z,7.30
2018-02-22T15:47:28.195Z,8.43
2018-02-22T15:49:55.718Z,8.97
2018-02-22T15:52:23.267Z,8.07
2018-02-22T15:54:50.802Z,7.57
2018-02-22T15:57:18.358Z,7.77
2018-02-22T15:59:45.881Z,6.60
2018-02-22T16:02:14.205Z,7.33
2018-02-22T16:04:42.511Z,8.38
2018-02-22T16:07:10.067Z,9.77
2018-02-22T16:09:37.594Z,7.90
2018-02-22T16:12:05.154Z,7.60
2018-02-22T16:14:32.682Z,6.63
2018-02-22T16:17:00.231Z,7.97
2018-02-22T16:19:27.763Z,7.27
2018-02-22T16:21:55.346Z,6.83
2018-02-22T16:24:22.882Z,8.13
2018-02-22T16:26:50.439Z,7.70
2018-02-22T16:29:17.980Z,8.27
2018-02-22T16:31:46.295Z,7.67
2018-02-22T16:34:13.861Z,6.67
2018-02-22T16:36:41.396Z,7.43
2018-02-22T16:39:08.929Z,7.50
2018-02-22T16:41:36.494Z,7.20
2018-02-22T16:44:04.799Z,8.17
2018-02-22T16:46:32.357Z,8.43
2018-02-22T16:48:59.884Z,7.13
2018-02-22T16:51:28.362Z,7.27
2018-02-22T16:53:55.889Z,6.87
2018-02-22T16:56:23.447Z,7.50
2018-02-22T16:58:50.983Z,7.47
2018-02-22T17:01:19.232Z,7.62
2018-02-22T17:03:46.882Z,7.03
2018-02-22T17:06:15.214Z,7.23
2018-02-22T17:08:42.752Z,8.10
2018-02-22T17:11:10.307Z,7.68
2018-02-22T17:13:37.834Z,7.40
2018-02-22T17:16:06.161Z,7.72
2018-02-22T17:18:33.691Z,7.50
2018-02-22T17:21:01.251Z,6.80
2018-02-22T17:23:28.806Z,8.43
2018-02-22T17:26:02.856Z,6.90
2018-02-22T17:28:36.025Z,7.37
2018-02-22T17:31:09.235Z,8.20
2018-02-22T17:33:36.774Z,7.43
2018-02-22T17:36:16.188Z,7.45
2018-02-22T17:38:43.718Z,7.17
2018-02-22T17:41:12.206Z,6.95
2018-02-22T17:43:39.779Z,7.72
2018-02-22T17:46:07.313Z,7.00
2018-02-22T17:48:34.871Z,6.40
2018-02-22T17:51:02.401Z,6.70
2018-02-22T17:53:29.943Z,7.10
2018-02-22T17:55:58.291Z,7.47
2018-02-22T17:58:25.884Z,7.70
2018-02-22T18:00:56.146Z,8.07
2018-02-22T18:03:23.756Z,7.37
2018-02-22T18:05:52.074Z,8.20
2018-02-22T18:08:19.635Z,8.02
2018-02-22T18:10:47.344Z,9.10
2018-02-22T18:13:14.931Z,8.00
2018-02-22T18:15:43.221Z,7.50
2018-02-22T18:18:10.827Z,8.10
2018-02-22T18:20:38.363Z,7.93
2018-02-22T18:23:06.130Z,7.85
2018-02-22T18:25:33.693Z,7.40
2018-02-22T18:28:01.293Z,7.70
2018-02-22T18:30:29.598Z,7.72
2018-02-22T18:32:57.151Z,9.80
2018-02-22T18:35:24.682Z,8.35
2018-02-22T18:37:57.923Z,7.53
2018-02-22T18:40:31.054Z,7.53
2018-02-22T18:42:58.623Z,7.73
2018-02-22T18:45:26.218Z,7.10
2018-02-22T18:47:53.792Z,10.45
2018-02-22T18:50:21.342Z,8.80
2018-02-22T18:52:48.903Z,8.13
2018-02-22T18:55:16.459Z,7.90
2018-02-22T18:57:44.058Z,7.57
2018-02-22T19:00:11.594Z,6.93
2018-02-22T19:02:39.153Z,8.50
2018-02-22T19:05:06.697Z,8.10
2018-02-22T19:07:34.284Z,6.95
2018-02-22T19:10:01.823Z,7.15
2018-02-22T19:12:29.515Z,7.82
2018-02-22T19:14:57.074Z,7.78
2018-02-22T19:17:24.643Z,8.82
2018-02-22T19:19:52.951Z,8.45
2018-02-22T19:22:21.301Z,7.75
2018-02-22T19:24:48.837Z,7.70
2018-02-22T19:27:16.385Z,8.50
2018-02-22T19:29:43.957Z,7.93
2018-02-22T19:32:11.551Z,8.90
2018-02-22T19:34:39.101Z,9.00
2018-02-22T19:37:06.646Z,8.70
2018-02-22T19:39:34.202Z,8.63
2018-02-22T19:42:01.739Z,8.25
2018-02-22T19:44:29.322Z,7.45
2018-02-22T19:46:56.861Z,9.10
2018-02-22T19:49:24.417Z,9.35
2018-02-22T19:51:51.959Z,8.70
2018-02-22T19:54:20.295Z,10.18
2018-02-22T19:56:47.830Z,9.30
2018-02-22T19:59:15.400Z,11.27
2018-02-22T20:01:42.937Z,8.27
2018-02-22T20:04:10.505Z,9.35
2018-02-22T20:06:38.043Z,9.95
2018-02-22T20:09:06.370Z,8.75
2018-02-22T20:11:33.908Z,10.20
2018-02-22T20:14:01.467Z,9.95
2018-02-22T20:16:29.002Z,8.18
2018-02-22T20:18:57.327Z,9.93
2018-02-22T20:21:24.872Z,10.65
2018-02-22T20:23:52.447Z,7.78
2018-02-22T20:26:19.987Z,9.25
2018-02-22T20:28:47.551Z,9.70
2018-02-22T20:31:15.111Z,8.65
2018-02-22T20:33:42.671Z,9.18
2018-02-22T20:36:10.209Z,9.23
2018-02-22T20:38:37.773Z,8.25
2018-02-22T20:41:05.305Z,10.23
2018-02-22T20:43:33.634Z,8.93
2018-02-22T20:46:01.171Z,7.78
2018-02-22T20:48:28.735Z,10.68
2018-02-22T20:51:13.128Z,8.38
2018-02-22T20:53:43.202Z,9.40
2018-02-22T20:56:10.755Z,10.40
2018-02-22T20:58:38.323Z,9.60
2018-02-22T21:01:05.863Z,9.25
2018-02-22T21:03:36.039Z,9.20
2018-02-22T21:06:03.584Z,10.70
2018-02-22T21:08:31.153Z,9.20
2018-02-22T21:10:58.689Z,9.05
2018-02-22T21:13:26.234Z,10.85
2018-02-22T21:15:53.806Z,9.30
2018-02-22T21:18:22.110Z,9.25
2018-02-22T21:20:49.667Z,9.95
2018-02-22T21:23:17.202Z,9.45
2018-02-22T21:25:44.762Z,9.05
2018-02-22T21:28:12.298Z,9.70
2018-02-22T21:30:40.626Z,9.38
2018-02-22T21:33:08.163Z,10.73
2018-02-22T21:35:35.733Z,10.05
2018-02-22T21:38:03.274Z,9.60
2018-02-22T21:40:30.838Z,9.90
2018-02-22T21:42:58.370Z,9.65
2018-02-22T21:45:26.697Z,8.15
2018-02-22T21:47:54.237Z,9.02
2018-02-22T21:50:21.816Z,8.50
2018-02-22T21:52:50.119Z,9.15
2018-02-22T21:55:17.682Z,9.40
2018-02-22T21:57:45.223Z,8.98
2018-02-22T22:00:12.790Z,8.73
2018-02-22T22:02:40.328Z,9.05
2018-02-22T22:05:07.895Z,9.07
2018-02-22T22:07:39.326Z,8.65
2018-02-22T22:10:06.891Z,8.27
2018-02-22T22:12:34.437Z,9.20
2018-02-22T22:15:02.011Z,10.95
2018-02-22T22:17:29.555Z,10.60
2018-02-22T22:19:57.111Z,7.75
2018-02-22T22:22:24.646Z,7.72
2018-02-22T22:24:52.972Z,8.85
2018-02-22T22:27:20.506Z,8.23
2018-02-22T22:29:48.074Z,10.20
2018-02-22T22:32:15.611Z,9.85
2018-02-22T22:34:44.193Z,8.10
2018-02-22T22:37:12.565Z,9.73
2018-02-22T22:39:40.086Z,9.23
2018-02-22T22:42:08.394Z,9.25
2018-02-22T22:44:35.962Z,10.23
2018-02-22T22:47:04.278Z,8.38
2018-02-22T22:49:31.838Z,9.43
2018-02-22T22:51:59.376Z,9.90
2018-02-22T22:54:26.944Z,8.65
2018-02-22T22:56:54.486Z,9.07
2018-02-22T22:59:22.814Z,10.50
2018-02-22T23:01:50.355Z,9.93
2018-02-22T23:04:17.932Z,9.10
2018-02-22T23:06:45.474Z,9.35
2018-02-22T23:09:13.036Z,8.85
2018-02-22T23:11:40.575Z,9.88
2018-02-22T23:14:08.127Z,9.25
2018-02-22T23:16:36.431Z,9.52
2018-02-22T23:19:04.015Z,8.27
2018-02-22T23:21:31.547Z,8.48
2018-02-22T23:23:59.082Z,8.82
2018-02-22T23:26:27.406Z,9.30
2018-02-22T23:28:54.937Z,8.50
2018-02-22T23:31:22.506Z,8.35
2018-02-22T23:33:50.049Z,10.65
2018-02-22T23:36:17.614Z,9.30
2018-02-22T23:38:45.147Z,8.77
2018-02-22T23:44:18.834Z,9.63
2018-02-22T23:46:46.371Z,10.35
2018-02-22T23:49:13.907Z,9.40
2018-02-22T23:51:41.465Z,9.00
2018-02-22T23:54:09.772Z,9.73
2018-02-22T23:56:37.325Z,9.60
2018-02-22T23:59:04.862Z,10.43
